sensor_id;sensor_type;location;lat;lon;timestamp;P1;durP1;ratioP1;P2;durP2;ratioP2
21148;SDS011;10732;51.472;6.466;2022-09-30T00:00:24;25.05;;;19.20;;
21148;SDS011;10732;51.472;6.466;2022-09-30T00:02:50;26.30;;;19.75;;
21148;SDS011;10732;51.472;6.466;2022-09-30T00:05:16;23.38;;;19.77;;
21148;SDS011;10732;51.472;6.466;2022-09-30T00:07:41;25.42;;;19.90;;
21148;SDS011;10732;51.472;6.466;2022-09-30T00:10:07;25.17;;;20.52;;
21148;SDS011;10732;51.472;6.466;2022-09-30T00:12:33;22.60;;;19.48;;
21148;SDS011;10732;51.472;6.466;2022-09-30T00:14:59;21.60;;;18.08;;
21148;SDS011;10732;51.472;6.466;2022-09-30T00:17:24;22.95;;;18.13;;
21148;SDS011;10732;51.472;6.466;2022-09-30T00:19:50;25.35;;;19.60;;
21148;SDS011;10732;51.472;6.466;2022-09-30T00:22:15;25.92;;;19.98;;
21148;SDS011;10732;51.472;6.466;2022-09-30T00:24:41;22.55;;;19.60;;
21148;SDS011;10732;51.472;6.466;2022-09-30T00:27:06;24.88;;;20.08;;
21148;SDS011;10732;51.472;6.466;2022-09-30T00:29:32;24.30;;;18.30;;
21148;SDS011;10732;51.472;6.466;2022-09-30T00:31:57;23.35;;;16.58;;
21148;SDS011;10732;51.472;6.466;2022-09-30T00:34:23;18.45;;;14.65;;
21148;SDS011;10732;51.472;6.466;2022-09-30T00:36:50;19.30;;;16.08;;
21148;SDS011;10732;51.472;6.466;2022-09-30T00:39:18;19.45;;;16.05;;
21148;SDS011;10732;51.472;6.466;2022-09-30T00:41:47;18.58;;;16.58;;
21148;SDS011;10732;51.472;6.466;2022-09-30T00:47:22;20.23;;;17.45;;
21148;SDS011;10732;51.472;6.466;2022-09-30T00:49:58;28.52;;;18.08;;
21148;SDS011;10732;51.472;6.466;2022-09-30T00:52:26;20.83;;;17.25;;
21148;SDS011;10732;51.472;6.466;2022-09-30T00:54:53;21.75;;;17.45;;
21148;SDS011;10732;51.472;6.466;2022-09-30T00:57:22;22.20;;;18.48;;
21148;SDS011;10732;51.472;6.466;2022-09-30T00:59:47;24.95;;;18.60;;
21148;SDS011;10732;51.472;6.466;2022-09-30T01:02:15;24.40;;;18.65;;
21148;SDS011;10732;51.472;6.466;2022-09-30T01:04:41;20.58;;;17.10;;
21148;SDS011;10732;51.472;6.466;2022-09-30T01:07:09;20.42;;;16.70;;
21148;SDS011;10732;51.472;6.466;2022-09-30T01:09:36;22.48;;;18.17;;
21148;SDS011;10732;51.472;6.466;2022-09-30T01:12:08;23.50;;;17.08;;
21148;SDS011;10732;51.472;6.466;2022-09-30T01:14:40;19.95;;;17.30;;
21148;SDS011;10732;51.472;6.466;2022-09-30T01:17:13;23.67;;;18.13;;
21148;SDS011;10732;51.472;6.466;2022-09-30T01:28:49;20.20;;;17.38;;
21148;SDS011;10732;51.472;6.466;2022-09-30T01:43:26;21.98;;;17.98;;
21148;SDS011;10732;51.472;6.466;2022-09-30T01:46:13;21.50;;;18.38;;
21148;SDS011;10732;51.472;6.466;2022-09-30T01:49:07;21.25;;;18.15;;
21148;SDS011;10732;51.472;6.466;2022-09-30T01:51:46;21.52;;;17.98;;
21148;SDS011;10732;51.472;6.466;2022-09-30T01:54:19;21.80;;;17.83;;
21148;SDS011;10732;51.472;6.466;2022-09-30T01:56:51;23.13;;;19.33;;
21148;SDS011;10732;51.472;6.466;2022-09-30T01:59:41;23.85;;;19.25;;
21148;SDS011;10732;51.472;6.466;2022-09-30T02:02:27;23.33;;;19.48;;
21148;SDS011;10732;51.472;6.466;2022-09-30T02:05:03;26.58;;;20.33;;
21148;SDS011;10732;51.472;6.466;2022-09-30T02:07:56;22.08;;;19.77;;
21148;SDS011;10732;51.472;6.466;2022-09-30T02:10:25;22.25;;;19.80;;
21148;SDS011;10732;51.472;6.466;2022-09-30T02:13:01;29.50;;;21.70;;
21148;SDS011;10732;51.472;6.466;2022-09-30T02:15:34;25.23;;;20.75;;
21148;SDS011;10732;51.472;6.466;2022-09-30T02:18:05;26.08;;;21.42;;
21148;SDS011;10732;51.472;6.466;2022-09-30T02:20:44;26.13;;;22.20;;
21148;SDS011;10732;51.472;6.466;2022-09-30T02:23:32;27.77;;;23.08;;
21148;SDS011;10732;51.472;6.466;2022-09-30T02:26:07;25.67;;;22.10;;
21148;SDS011;10732;51.472;6.466;2022-09-30T02:28:43;26.43;;;21.27;;
21148;SDS011;10732;51.472;6.466;2022-09-30T02:31:13;28.30;;;21.70;;
21148;SDS011;10732;51.472;6.466;2022-09-30T02:33:49;26.60;;;21.63;;
21148;SDS011;10732;51.472;6.466;2022-09-30T02:39:42;27.98;;;21.75;;
21148;SDS011;10732;51.472;6.466;2022-09-30T02:41:50;28.20;;;22.83;;
21148;SDS011;10732;51.472;6.466;2022-09-30T02:44:22;30.35;;;22.67;;
21148;SDS011;10732;51.472;6.466;2022-09-30T02:52:29;28.90;;;23.13;;
21148;SDS011;10732;51.472;6.466;2022-09-30T02:57:54;26.93;;;23.33;;
21148;SDS011;10732;51.472;6.466;2022-09-30T03:00:24;26.70;;;23.20;;
21148;SDS011;10732;51.472;6.466;2022-09-30T03:02:52;31.10;;;24.10;;
21148;SDS011;10732;51.472;6.466;2022-09-30T03:05:21;30.55;;;22.98;;
21148;SDS011;10732;51.472;6.466;2022-09-30T03:07:47;28.90;;;23.67;;
21148;SDS011;10732;51.472;6.466;2022-09-30T03:10:13;32.43;;;23.30;;
21148;SDS011;10732;51.472;6.466;2022-09-30T03:12:51;30.17;;;23.27;;
21148;SDS011;10732;51.472;6.466;2022-09-30T03:18:23;31.33;;;24.05;;
21148;SDS011;10732;51.472;6.466;2022-09-30T03:21:06;29.88;;;23.65;;
21148;SDS011;10732;51.472;6.466;2022-09-30T03:26:25;29.50;;;24.27;;
21148;SDS011;10732;51.472;6.466;2022-09-30T03:29:08;29.87;;;24.53;;
21148;SDS011;10732;51.472;6.466;2022-09-30T03:34:54;32.97;;;24.25;;
21148;SDS011;10732;51.472;6.466;2022-09-30T03:37:29;31.30;;;24.53;;
21148;SDS011;10732;51.472;6.466;2022-09-30T03:40:08;27.60;;;23.57;;
21148;SDS011;10732;51.472;6.466;2022-09-30T03:42:43;35.73;;;26.93;;
21148;SDS011;10732;51.472;6.466;2022-09-30T03:45:16;33.53;;;26.17;;
21148;SDS011;10732;51.472;6.466;2022-09-30T03:47:57;33.87;;;25.83;;
21148;SDS011;10732;51.472;6.466;2022-09-30T03:50:28;30.97;;;24.73;;
21148;SDS011;10732;51.472;6.466;2022-09-30T03:52:56;33.70;;;24.95;;
21148;SDS011;10732;51.472;6.466;2022-09-30T03:55:22;29.52;;;25.95;;
21148;SDS011;10732;51.472;6.466;2022-09-30T03:57:49;31.77;;;25.73;;
21148;SDS011;10732;51.472;6.466;2022-09-30T04:00:15;30.70;;;26.07;;
21148;SDS011;10732;51.472;6.466;2022-09-30T04:02:40;33.83;;;26.23;;
21148;SDS011;10732;51.472;6.466;2022-09-30T04:05:06;31.97;;;25.93;;
21148;SDS011;10732;51.472;6.466;2022-09-30T04:07:32;30.07;;;25.53;;
21148;SDS011;10732;51.472;6.466;2022-09-30T04:09:59;30.93;;;25.87;;
21148;SDS011;10732;51.472;6.466;2022-09-30T04:12:24;34.10;;;26.73;;
21148;SDS011;10732;51.472;6.466;2022-09-30T04:14:50;31.67;;;26.27;;
21148;SDS011;10732;51.472;6.466;2022-09-30T04:17:16;31.70;;;25.37;;
21148;SDS011;10732;51.472;6.466;2022-09-30T04:19:41;32.45;;;24.83;;
21148;SDS011;10732;51.472;6.466;2022-09-30T04:22:08;28.33;;;23.10;;
21148;SDS011;10732;51.472;6.466;2022-09-30T04:24:34;31.00;;;24.87;;
21148;SDS011;10732;51.472;6.466;2022-09-30T04:27:00;31.53;;;24.47;;
21148;SDS011;10732;51.472;6.466;2022-09-30T04:29:26;32.27;;;25.77;;
21148;SDS011;10732;51.472;6.466;2022-09-30T04:31:52;31.53;;;25.93;;
21148;SDS011;10732;51.472;6.466;2022-09-30T04:34:18;33.93;;;26.83;;
21148;SDS011;10732;51.472;6.466;2022-09-30T04:36:44;30.07;;;24.90;;
21148;SDS011;10732;51.472;6.466;2022-09-30T04:39:09;31.97;;;26.40;;
21148;SDS011;10732;51.472;6.466;2022-09-30T04:41:35;29.60;;;24.47;;
21148;SDS011;10732;51.472;6.466;2022-09-30T04:44:02;35.27;;;25.83;;
21148;SDS011;10732;51.472;6.466;2022-09-30T04:46:32;32.93;;;25.20;;
21148;SDS011;10732;51.472;6.466;2022-09-30T04:49:00;34.27;;;25.57;;
21148;SDS011;10732;51.472;6.466;2022-09-30T04:51:27;28.47;;;24.63;;
21148;SDS011;10732;51.472;6.466;2022-09-30T04:53:53;31.40;;;24.97;;
21148;SDS011;10732;51.472;6.466;2022-09-30T04:56:19;31.48;;;24.20;;
21148;SDS011;10732;51.472;6.466;2022-09-30T04:58:46;29.83;;;23.95;;
21148;SDS011;10732;51.472;6.466;2022-09-30T05:01:13;31.67;;;25.00;;
21148;SDS011;10732;51.472;6.466;2022-09-30T05:03:40;31.93;;;26.03;;
21148;SDS011;10732;51.472;6.466;2022-09-30T05:06:07;33.37;;;25.07;;
21148;SDS011;10732;51.472;6.466;2022-09-30T05:08:33;29.23;;;24.57;;
21148;SDS011;10732;51.472;6.466;2022-09-30T05:11:02;32.07;;;25.87;;
21148;SDS011;10732;51.472;6.466;2022-09-30T05:13:34;33.80;;;26.63;;
21148;SDS011;10732;51.472;6.466;2022-09-30T05:16:01;35.87;;;28.20;;
21148;SDS011;10732;51.472;6.466;2022-09-30T05:18:27;32.67;;;26.60;;
21148;SDS011;10732;51.472;6.466;2022-09-30T05:20:54;38.37;;;28.47;;
21148;SDS011;10732;51.472;6.466;2022-09-30T05:23:23;34.37;;;29.33;;
21148;SDS011;10732;51.472;6.466;2022-09-30T05:25:51;34.40;;;29.33;;
21148;SDS011;10732;51.472;6.466;2022-09-30T05:28:17;37.95;;;29.23;;
21148;SDS011;10732;51.472;6.466;2022-09-30T05:30:43;31.70;;;26.60;;
21148;SDS011;10732;51.472;6.466;2022-09-30T05:33:10;38.30;;;27.17;;
21148;SDS011;10732;51.472;6.466;2022-09-30T05:35:37;34.50;;;27.00;;
21148;SDS011;10732;51.472;6.466;2022-09-30T05:38:04;33.97;;;26.03;;
21148;SDS011;10732;51.472;6.466;2022-09-30T05:40:30;33.87;;;26.63;;
21148;SDS011;10732;51.472;6.466;2022-09-30T05:42:56;30.45;;;25.67;;
21148;SDS011;10732;51.472;6.466;2022-09-30T05:45:23;31.53;;;25.73;;
21148;SDS011;10732;51.472;6.466;2022-09-30T05:47:50;34.85;;;27.08;;
21148;SDS011;10732;51.472;6.466;2022-09-30T05:50:16;30.10;;;25.67;;
21148;SDS011;10732;51.472;6.466;2022-09-30T05:52:41;31.55;;;25.63;;
21148;SDS011;10732;51.472;6.466;2022-09-30T05:55:07;31.80;;;26.40;;
21148;SDS011;10732;51.472;6.466;2022-09-30T05:57:33;36.45;;;27.85;;
21148;SDS011;10732;51.472;6.466;2022-09-30T05:59:58;33.30;;;27.03;;
21148;SDS011;10732;51.472;6.466;2022-09-30T06:02:24;34.77;;;26.27;;
21148;SDS011;10732;51.472;6.466;2022-09-30T06:04:49;31.92;;;26.98;;
21148;SDS011;10732;51.472;6.466;2022-09-30T06:07:15;33.80;;;26.87;;
21148;SDS011;10732;51.472;6.466;2022-09-30T06:09:41;34.93;;;29.93;;
21148;SDS011;10732;51.472;6.466;2022-09-30T06:12:07;37.97;;;28.73;;
21148;SDS011;10732;51.472;6.466;2022-09-30T06:14:33;35.57;;;28.07;;
21148;SDS011;10732;51.472;6.466;2022-09-30T06:16:58;33.37;;;27.27;;
21148;SDS011;10732;51.472;6.466;2022-09-30T06:19:27;37.05;;;27.77;;
21148;SDS011;10732;51.472;6.466;2022-09-30T06:21:54;36.53;;;28.08;;
21148;SDS011;10732;51.472;6.466;2022-09-30T06:24:20;37.17;;;28.93;;
21148;SDS011;10732;51.472;6.466;2022-09-30T06:26:45;30.40;;;26.90;;
21148;SDS011;10732;51.472;6.466;2022-09-30T06:29:11;33.85;;;27.73;;
21148;SDS011;10732;51.472;6.466;2022-09-30T06:31:36;34.75;;;25.80;;
21148;SDS011;10732;51.472;6.466;2022-09-30T06:34:02;34.50;;;25.88;;
21148;SDS011;10732;51.472;6.466;2022-09-30T06:36:28;35.58;;;27.52;;
21148;SDS011;10732;51.472;6.466;2022-09-30T06:38:56;35.30;;;26.33;;
21148;SDS011;10732;51.472;6.466;2022-09-30T06:41:21;34.60;;;25.42;;
21148;SDS011;10732;51.472;6.466;2022-09-30T06:43:50;33.63;;;26.48;;
21148;SDS011;10732;51.472;6.466;2022-09-30T06:46:15;32.95;;;24.55;;
21148;SDS011;10732;51.472;6.466;2022-09-30T06:48:41;31.05;;;24.08;;
21148;SDS011;10732;51.472;6.466;2022-09-30T06:51:06;28.90;;;22.33;;
21148;SDS011;10732;51.472;6.466;2022-09-30T06:53:38;36.33;;;22.85;;
21148;SDS011;10732;51.472;6.466;2022-09-30T06:56:04;28.10;;;21.95;;
21148;SDS011;10732;51.472;6.466;2022-09-30T06:58:30;28.27;;;21.65;;
21148;SDS011;10732;51.472;6.466;2022-09-30T07:00:59;29.52;;;22.40;;
21148;SDS011;10732;51.472;6.466;2022-09-30T07:03:29;28.27;;;21.77;;
21148;SDS011;10732;51.472;6.466;2022-09-30T07:05:57;28.90;;;22.00;;
21148;SDS011;10732;51.472;6.466;2022-09-30T07:08:27;33.10;;;22.83;;
21148;SDS011;10732;51.472;6.466;2022-09-30T07:10:55;29.50;;;22.30;;
21148;SDS011;10732;51.472;6.466;2022-09-30T07:13:39;26.92;;;19.70;;
21148;SDS011;10732;51.472;6.466;2022-09-30T07:16:09;26.98;;;18.70;;
21148;SDS011;10732;51.472;6.466;2022-09-30T07:18:36;22.38;;;17.98;;
21148;SDS011;10732;51.472;6.466;2022-09-30T07:21:02;20.00;;;16.38;;
21148;SDS011;10732;51.472;6.466;2022-09-30T07:23:29;18.55;;;13.70;;
21148;SDS011;10732;51.472;6.466;2022-09-30T07:25:56;14.55;;;10.95;;
21148;SDS011;10732;51.472;6.466;2022-09-30T07:28:25;13.38;;;9.45;;
21148;SDS011;10732;51.472;6.466;2022-09-30T07:30:55;15.35;;;8.98;;
21148;SDS011;10732;51.472;6.466;2022-09-30T07:33:22;11.55;;;8.57;;
21148;SDS011;10732;51.472;6.466;2022-09-30T07:35:53;13.45;;;8.45;;
21148;SDS011;10732;51.472;6.466;2022-09-30T07:38:20;12.13;;;8.65;;
21148;SDS011;10732;51.472;6.466;2022-09-30T07:40:55;14.63;;;8.55;;
21148;SDS011;10732;51.472;6.466;2022-09-30T07:43:22;13.63;;;8.52;;
21148;SDS011;10732;51.472;6.466;2022-09-30T07:46:41;13.30;;;8.63;;
21148;SDS011;10732;51.472;6.466;2022-09-30T07:48:50;12.15;;;8.20;;
21148;SDS011;10732;51.472;6.466;2022-09-30T07:51:20;13.35;;;8.25;;
21148;SDS011;10732;51.472;6.466;2022-09-30T07:53:53;11.65;;;8.57;;
21148;SDS011;10732;51.472;6.466;2022-09-30T07:56:22;9.85;;;7.85;;
21148;SDS011;10732;51.472;6.466;2022-09-30T07:58:48;10.38;;;8.23;;
21148;SDS011;10732;51.472;6.466;2022-09-30T08:01:18;11.40;;;9.27;;
21148;SDS011;10732;51.472;6.466;2022-09-30T08:03:43;11.68;;;8.27;;
21148;SDS011;10732;51.472;6.466;2022-09-30T08:06:11;11.15;;;9.10;;
21148;SDS011;10732;51.472;6.466;2022-09-30T08:08:41;15.27;;;9.82;;
21148;SDS011;10732;51.472;6.466;2022-09-30T08:11:08;11.40;;;9.93;;
21148;SDS011;10732;51.472;6.466;2022-09-30T08:13:34;15.98;;;10.85;;
21148;SDS011;10732;51.472;6.466;2022-09-30T08:16:00;14.40;;;10.70;;
21148;SDS011;10732;51.472;6.466;2022-09-30T08:18:26;16.67;;;10.32;;
21148;SDS011;10732;51.472;6.466;2022-09-30T08:20:52;15.02;;;10.98;;
21148;SDS011;10732;51.472;6.466;2022-09-30T08:23:18;16.45;;;11.90;;
21148;SDS011;10732;51.472;6.466;2022-09-30T08:25:44;12.13;;;10.70;;
21148;SDS011;10732;51.472;6.466;2022-09-30T08:28:10;17.48;;;12.35;;
21148;SDS011;10732;51.472;6.466;2022-09-30T08:30:36;13.57;;;11.88;;
21148;SDS011;10732;51.472;6.466;2022-09-30T08:33:02;17.02;;;12.23;;
21148;SDS011;10732;51.472;6.466;2022-09-30T08:35:28;15.77;;;11.63;;
21148;SDS011;10732;51.472;6.466;2022-09-30T08:37:54;14.30;;;11.30;;
21148;SDS011;10732;51.472;6.466;2022-09-30T08:40:24;17.33;;;12.25;;
21148;SDS011;10732;51.472;6.466;2022-09-30T08:46:08;18.48;;;11.48;;
21148;SDS011;10732;51.472;6.466;2022-09-30T08:53:52;18.13;;;12.88;;
21148;SDS011;10732;51.472;6.466;2022-09-30T08:56:25;14.35;;;11.85;;
21148;SDS011;10732;51.472;6.466;2022-09-30T08:58:55;15.23;;;12.70;;
21148;SDS011;10732;51.472;6.466;2022-09-30T09:01:32;15.98;;;13.23;;
21148;SDS011;10732;51.472;6.466;2022-09-30T09:03:59;14.48;;;11.85;;
21148;SDS011;10732;51.472;6.466;2022-09-30T09:06:35;17.67;;;12.38;;
21148;SDS011;10732;51.472;6.466;2022-09-30T09:22:16;14.18;;;11.98;;
21148;SDS011;10732;51.472;6.466;2022-09-30T09:24:43;15.85;;;11.60;;
21148;SDS011;10732;51.472;6.466;2022-09-30T09:30:33;17.63;;;12.95;;
21148;SDS011;10732;51.472;6.466;2022-09-30T09:33:15;14.07;;;12.32;;
21148;SDS011;10732;51.472;6.466;2022-09-30T09:35:53;15.25;;;12.63;;
21148;SDS011;10732;51.472;6.466;2022-09-30T09:38:38;13.75;;;12.15;;
21148;SDS011;10732;51.472;6.466;2022-09-30T09:44:26;17.58;;;12.52;;
21148;SDS011;10732;51.472;6.466;2022-09-30T09:47:00;15.10;;;13.50;;
21148;SDS011;10732;51.472;6.466;2022-09-30T09:49:32;14.75;;;13.18;;
21148;SDS011;10732;51.472;6.466;2022-09-30T09:52:02;14.57;;;12.40;;
21148;SDS011;10732;51.472;6.466;2022-09-30T09:57:08;14.65;;;11.82;;
21148;SDS011;10732;51.472;6.466;2022-09-30T09:59:35;15.90;;;13.43;;
21148;SDS011;10732;51.472;6.466;2022-09-30T10:02:11;17.48;;;12.15;;
21148;SDS011;10732;51.472;6.466;2022-09-30T10:04:48;14.25;;;12.23;;
21148;SDS011;10732;51.472;6.466;2022-09-30T10:07:23;14.70;;;12.00;;
21148;SDS011;10732;51.472;6.466;2022-09-30T10:09:50;14.02;;;12.45;;
21148;SDS011;10732;51.472;6.466;2022-09-30T10:12:32;15.25;;;11.52;;
21148;SDS011;10732;51.472;6.466;2022-09-30T10:15:20;13.60;;;12.30;;
21148;SDS011;10732;51.472;6.466;2022-09-30T10:17:50;14.07;;;12.20;;
21148;SDS011;10732;51.472;6.466;2022-09-30T10:20:26;12.95;;;11.65;;
21148;SDS011;10732;51.472;6.466;2022-09-30T10:23:14;13.68;;;12.27;;
21148;SDS011;10732;51.472;6.466;2022-09-30T10:28:48;13.77;;;12.05;;
21148;SDS011;10732;51.472;6.466;2022-09-30T10:33:54;12.18;;;11.00;;
21148;SDS011;10732;51.472;6.466;2022-09-30T10:36:21;14.45;;;11.48;;
21148;SDS011;10732;51.472;6.466;2022-09-30T10:39:02;11.85;;;10.65;;
21148;SDS011;10732;51.472;6.466;2022-09-30T10:41:32;12.48;;;11.20;;
21148;SDS011;10732;51.472;6.466;2022-09-30T10:44:00;11.00;;;10.00;;
21148;SDS011;10732;51.472;6.466;2022-09-30T10:46:35;11.50;;;10.30;;
21148;SDS011;10732;51.472;6.466;2022-09-30T10:49:11;11.82;;;10.57;;
21148;SDS011;10732;51.472;6.466;2022-09-30T10:51:52;11.32;;;10.13;;
21148;SDS011;10732;51.472;6.466;2022-09-30T10:57:04;11.93;;;10.75;;
21148;SDS011;10732;51.472;6.466;2022-09-30T10:59:32;11.70;;;10.50;;
21148;SDS011;10732;51.472;6.466;2022-09-30T11:02:10;11.35;;;10.25;;
21148;SDS011;10732;51.472;6.466;2022-09-30T11:05:14;13.63;;;10.90;;
21148;SDS011;10732;51.472;6.466;2022-09-30T11:08:00;12.48;;;10.25;;
21148;SDS011;10732;51.472;6.466;2022-09-30T11:15:59;11.55;;;10.35;;
21148;SDS011;10732;51.472;6.466;2022-09-30T11:18:30;13.20;;;11.05;;
21148;SDS011;10732;51.472;6.466;2022-09-30T11:21:09;10.60;;;9.52;;
21148;SDS011;10732;51.472;6.466;2022-09-30T11:26:39;13.95;;;9.50;;
21148;SDS011;10732;51.472;6.466;2022-09-30T11:37:39;14.98;;;9.00;;
21148;SDS011;10732;51.472;6.466;2022-09-30T11:40:23;10.00;;;8.85;;
21148;SDS011;10732;51.472;6.466;2022-09-30T11:57:36;10.80;;;9.02;;
21148;SDS011;10732;51.472;6.466;2022-09-30T12:00:21;13.40;;;8.60;;
21148;SDS011;10732;51.472;6.466;2022-09-30T12:02:49;12.07;;;8.52;;
21148;SDS011;10732;51.472;6.466;2022-09-30T12:06:19;9.40;;;7.80;;
21148;SDS011;10732;51.472;6.466;2022-09-30T12:09:02;8.00;;;7.20;;
21148;SDS011;10732;51.472;6.466;2022-09-30T12:11:35;12.68;;;7.10;;
21148;SDS011;10732;51.472;6.466;2022-09-30T12:14:58;8.93;;;7.57;;
21148;SDS011;10732;51.472;6.466;2022-09-30T12:17:18;10.93;;;7.65;;
21148;SDS011;10732;51.472;6.466;2022-09-30T12:19:55;10.07;;;7.20;;
21148;SDS011;10732;51.472;6.466;2022-09-30T12:22:30;8.43;;;7.40;;
21148;SDS011;10732;51.472;6.466;2022-09-30T12:25:10;10.93;;;7.10;;
21148;SDS011;10732;51.472;6.466;2022-09-30T12:28:02;7.30;;;6.43;;
21148;SDS011;10732;51.472;6.466;2022-09-30T12:31:15;6.90;;;6.20;;
21148;SDS011;10732;51.472;6.466;2022-09-30T12:36:47;7.18;;;6.47;;
21148;SDS011;10732;51.472;6.466;2022-09-30T12:39:31;6.90;;;5.72;;
21148;SDS011;10732;51.472;6.466;2022-09-30T12:48:21;5.97;;;4.85;;
21148;SDS011;10732;51.472;6.466;2022-09-30T12:50:53;10.13;;;5.15;;
21148;SDS011;10732;51.472;6.466;2022-09-30T12:53:26;7.22;;;5.28;;
21148;SDS011;10732;51.472;6.466;2022-09-30T12:55:54;7.05;;;5.53;;
21148;SDS011;10732;51.472;6.466;2022-09-30T12:58:33;5.28;;;4.78;;
21148;SDS011;10732;51.472;6.466;2022-09-30T13:03:42;7.63;;;5.50;;
21148;SDS011;10732;51.472;6.466;2022-09-30T13:06:14;6.88;;;4.70;;
21148;SDS011;10732;51.472;6.466;2022-09-30T13:08:43;7.35;;;5.53;;
21148;SDS011;10732;51.472;6.466;2022-09-30T13:11:27;5.65;;;5.05;;
21148;SDS011;10732;51.472;6.466;2022-09-30T13:14:21;7.40;;;5.43;;
21148;SDS011;10732;51.472;6.466;2022-09-30T13:16:59;8.07;;;5.10;;
21148;SDS011;10732;51.472;6.466;2022-09-30T13:19:45;5.95;;;4.55;;
21148;SDS011;10732;51.472;6.466;2022-09-30T13:27:41;5.95;;;4.47;;
21148;SDS011;10732;51.472;6.466;2022-09-30T13:32:40;10.20;;;4.95;;
21148;SDS011;10732;51.472;6.466;2022-09-30T13:35:30;6.70;;;5.00;;
21148;SDS011;10732;51.472;6.466;2022-09-30T13:40:43;6.88;;;4.97;;
21148;SDS011;10732;51.472;6.466;2022-09-30T13:46:29;7.25;;;5.70;;
21148;SDS011;10732;51.472;6.466;2022-09-30T13:49:04;6.80;;;5.57;;
21148;SDS011;10732;51.472;6.466;2022-09-30T13:51:37;5.20;;;4.32;;
21148;SDS011;10732;51.472;6.466;2022-09-30T13:54:06;4.93;;;3.90;;
21148;SDS011;10732;51.472;6.466;2022-09-30T13:56:38;6.80;;;4.05;;
21148;SDS011;10732;51.472;6.466;2022-09-30T14:18:32;5.05;;;4.47;;
21148;SDS011;10732;51.472;6.466;2022-09-30T14:24:24;5.20;;;3.83;;
21148;SDS011;10732;51.472;6.466;2022-09-30T14:29:46;6.55;;;3.53;;
21148;SDS011;10732;51.472;6.466;2022-09-30T14:32:25;7.82;;;3.22;;
21148;SDS011;10732;51.472;6.466;2022-09-30T14:34:53;4.55;;;3.03;;
21148;SDS011;10732;51.472;6.466;2022-09-30T14:37:22;4.60;;;2.88;;
21148;SDS011;10732;51.472;6.466;2022-09-30T14:39:53;4.43;;;2.80;;
21148;SDS011;10732;51.472;6.466;2022-09-30T14:42:22;5.40;;;2.70;;
21148;SDS011;10732;51.472;6.466;2022-09-30T14:44:55;5.65;;;2.95;;
21148;SDS011;10732;51.472;6.466;2022-09-30T14:47:28;4.35;;;2.60;;
21148;SDS011;10732;51.472;6.466;2022-09-30T14:49:58;4.75;;;2.35;;
21148;SDS011;10732;51.472;6.466;2022-09-30T14:52:59;4.45;;;2.60;;
21148;SDS011;10732;51.472;6.466;2022-09-30T14:55:32;3.70;;;2.30;;
21148;SDS011;10732;51.472;6.466;2022-09-30T14:58:21;4.30;;;2.33;;
21148;SDS011;10732;51.472;6.466;2022-09-30T15:01:05;3.30;;;2.20;;
21148;SDS011;10732;51.472;6.466;2022-09-30T15:03:38;3.25;;;2.03;;
21148;SDS011;10732;51.472;6.466;2022-09-30T15:06:19;3.33;;;2.22;;
21148;SDS011;10732;51.472;6.466;2022-09-30T15:08:49;4.07;;;2.05;;
21148;SDS011;10732;51.472;6.466;2022-09-30T15:11:23;3.35;;;1.80;;
21148;SDS011;10732;51.472;6.466;2022-09-30T15:14:10;2.72;;;1.73;;
21148;SDS011;10732;51.472;6.466;2022-09-30T15:16:48;3.28;;;1.60;;
21148;SDS011;10732;51.472;6.466;2022-09-30T15:19:28;2.85;;;1.38;;
21148;SDS011;10732;51.472;6.466;2022-09-30T15:22:00;2.58;;;1.55;;
21148;SDS011;10732;51.472;6.466;2022-09-30T15:24:29;1.83;;;1.30;;
21148;SDS011;10732;51.472;6.466;2022-09-30T15:26:56;5.60;;;1.30;;
21148;SDS011;10732;51.472;6.466;2022-09-30T15:29:23;2.63;;;1.30;;
21148;SDS011;10732;51.472;6.466;2022-09-30T15:32:00;3.95;;;1.40;;
21148;SDS011;10732;51.472;6.466;2022-09-30T15:34:29;2.17;;;1.20;;
21148;SDS011;10732;51.472;6.466;2022-09-30T15:36:59;2.20;;;1.20;;
21148;SDS011;10732;51.472;6.466;2022-09-30T15:39:34;4.10;;;1.20;;
21148;SDS011;10732;51.472;6.466;2022-09-30T15:42:35;1.92;;;1.10;;
21148;SDS011;10732;51.472;6.466;2022-09-30T15:45:29;3.25;;;1.35;;
21148;SDS011;10732;51.472;6.466;2022-09-30T15:48:05;6.40;;;1.20;;
21148;SDS011;10732;51.472;6.466;2022-09-30T15:54:04;1.25;;;1.10;;
21148;SDS011;10732;51.472;6.466;2022-09-30T15:56:15;1.88;;;1.10;;
21148;SDS011;10732;51.472;6.466;2022-09-30T15:59:08;2.08;;;1.10;;
21148;SDS011;10732;51.472;6.466;2022-09-30T16:01:45;0.90;;;0.90;;
21148;SDS011;10732;51.472;6.466;2022-09-30T16:09:18;2.67;;;1.02;;
21148;SDS011;10732;51.472;6.466;2022-09-30T16:11:56;2.53;;;1.08;;
21148;SDS011;10732;51.472;6.466;2022-09-30T16:14:31;2.33;;;1.23;;
21148;SDS011;10732;51.472;6.466;2022-09-30T16:17:00;2.67;;;1.48;;
21148;SDS011;10732;51.472;6.466;2022-09-30T16:19:28;3.33;;;0.98;;
21148;SDS011;10732;51.472;6.466;2022-09-30T16:21:55;2.28;;;1.05;;
21148;SDS011;10732;51.472;6.466;2022-09-30T16:26:47;3.80;;;1.20;;
21148;SDS011;10732;51.472;6.466;2022-09-30T16:29:14;1.13;;;1.00;;
21148;SDS011;10732;51.472;6.466;2022-09-30T16:31:41;2.13;;;0.93;;
21148;SDS011;10732;51.472;6.466;2022-09-30T16:34:24;1.52;;;1.00;;
21148;SDS011;10732;51.472;6.466;2022-09-30T16:36:53;1.98;;;1.13;;
21148;SDS011;10732;51.472;6.466;2022-09-30T16:39:19;1.80;;;1.02;;
21148;SDS011;10732;51.472;6.466;2022-09-30T16:41:45;1.20;;;1.10;;
21148;SDS011;10732;51.472;6.466;2022-09-30T16:44:11;2.15;;;1.33;;
21148;SDS011;10732;51.472;6.466;2022-09-30T16:46:37;1.85;;;1.20;;
21148;SDS011;10732;51.472;6.466;2022-09-30T16:49:17;1.80;;;1.20;;
21148;SDS011;10732;51.472;6.466;2022-09-30T16:51:43;3.40;;;1.52;;
21148;SDS011;10732;51.472;6.466;2022-09-30T16:54:09;2.85;;;1.30;;
21148;SDS011;10732;51.472;6.466;2022-09-30T16:56:35;3.47;;;1.30;;
21148;SDS011;10732;51.472;6.466;2022-09-30T16:59:01;4.25;;;1.50;;
21148;SDS011;10732;51.472;6.466;2022-09-30T17:01:27;1.52;;;1.00;;
21148;SDS011;10732;51.472;6.466;2022-09-30T17:03:54;2.30;;;1.17;;
21148;SDS011;10732;51.472;6.466;2022-09-30T17:06:24;2.88;;;1.15;;
21148;SDS011;10732;51.472;6.466;2022-09-30T17:08:52;2.20;;;1.30;;
21148;SDS011;10732;51.472;6.466;2022-09-30T17:11:17;3.55;;;1.55;;
21148;SDS011;10732;51.472;6.466;2022-09-30T17:13:44;4.38;;;2.40;;
21148;SDS011;10732;51.472;6.466;2022-09-30T17:16:10;3.60;;;1.60;;
21148;SDS011;10732;51.472;6.466;2022-09-30T17:18:36;2.65;;;1.33;;
21148;SDS011;10732;51.472;6.466;2022-09-30T17:21:01;2.65;;;1.50;;
21148;SDS011;10732;51.472;6.466;2022-09-30T17:23:28;4.90;;;2.95;;
21148;SDS011;10732;51.472;6.466;2022-09-30T17:25:53;2.80;;;2.30;;
21148;SDS011;10732;51.472;6.466;2022-09-30T17:28:19;18.98;;;13.70;;
21148;SDS011;10732;51.472;6.466;2022-09-30T17:30:46;15.90;;;12.30;;
21148;SDS011;10732;51.472;6.466;2022-09-30T17:33:13;9.13;;;7.38;;
21148;SDS011;10732;51.472;6.466;2022-09-30T17:35:39;12.77;;;9.32;;
21148;SDS011;10732;51.472;6.466;2022-09-30T17:38:05;9.98;;;6.60;;
21148;SDS011;10732;51.472;6.466;2022-09-30T17:40:35;3.03;;;2.00;;
21148;SDS011;10732;51.472;6.466;2022-09-30T17:43:19;3.45;;;1.70;;
21148;SDS011;10732;51.472;6.466;2022-09-30T17:45:46;3.25;;;1.80;;
21148;SDS011;10732;51.472;6.466;2022-09-30T17:48:12;5.32;;;2.20;;
21148;SDS011;10732;51.472;6.466;2022-09-30T17:50:41;2.50;;;1.92;;
21148;SDS011;10732;51.472;6.466;2022-09-30T17:53:08;2.22;;;1.80;;